• Join FlightAware (Why Join?)
  • Login
  • US Flag 
06:46PM EST


 

Airport Tracker/Info


-or-


 

Live Flight TrackerFlight Track Log ✈ UAL3841 ✈ 21-Jul-2014 ✈ KIAH - KBNA

Flight Track Log - Related Links

Times and Time Zones

All times are in EDT time to prevent confusion due to time zone crossing. See the UAL3841 flight status page for this flight to view local times or setup timezone preferences in your user account.

Time Position Orientation Groundspeed Altitude Reporting Facility
EDT Latitude Longitude Course Direction KTS MPH feet Rate Location/Type
07:36PM 29.9550 -95.3394 35° Northeast 161 185 800  Level Houston Center
07:37PM 29.9700 -95.2967 68° East 210 242 1,900 1,333 Climbing Houston Center
07:38PM 30.0058 -95.2947 North 230 265 2,800 1,770 Climbing Houston Center
07:38PM 30.0369 -95.2933 North 239 275 3,700 1,645 Climbing Houston Center
07:39PM 30.0686 -95.2711 31° Northeast 241 277 4,500 1,469 Climbing Houston Center
07:40PM 30.3097 -95.0719 33° Northeast  Level FlightAware Approximate
07:40PM 30.1311 -95.2222 34° Northeast 263 303 6,100  Level Houston Center
07:41PM 30.3919 -95.0065 35° Northeast  Level FlightAware Approximate
07:41PM 30.1956 -95.1722 34° Northeast 273 314 8,100  Level Houston Center
07:42PM 30.2589 -95.1214 35° Northeast 275 316 9,800 1,268 Climbing Houston Center
07:43PM 30.3264 -95.0703 33° Northeast 283 326 10,700 774 Climbing Houston Center
07:44PM 30.4172 -94.9992 34° Northeast 325 374 11,400 871 Climbing Houston Center
07:45PM 30.4978 -94.9350 34° Northeast 339 390 12,500 1,024 Climbing Houston Center
07:46PM 30.5783 -94.8736 33° Northeast 342 394 13,500 976 Climbing Houston Center
07:47PM 30.6586 -94.8119 33° Northeast 344 396 14,500 919 Climbing Houston Center
07:48PM 30.7394 -94.7489 34° Northeast 346 398 15,400 829 Climbing Houston Center
07:49PM 30.8200 -94.6864 34° Northeast 348 400 16,200 732 Climbing Houston Center
07:50PM 30.9031 -94.6222 34° Northeast 355 409 16,900 629 Climbing Houston Center
07:51PM 31.0033 -94.5444 34° Northeast 359 413 17,500 537 Climbing Houston Center
07:52PM 31.0875 -94.4794 33° Northeast 363 418 18,000 537 Climbing Houston Center
07:53PM 31.1725 -94.4125 34° Northeast 366 421 18,600 532 Climbing Houston Center
07:54PM 31.2592 -94.3450 34° Northeast 371 427 19,100 532 Climbing Houston Center
07:55PM 31.3458 -94.2778 34° Northeast 373 429 19,700 537 Climbing Houston Center
07:56PM 31.4369 -94.2083 33° Northeast 384 442 20,200 537 Climbing Houston Center
07:57PM 31.5447 -94.1231 34° Northeast 388 447 20,800 484 Climbing Houston Center
07:58PM 31.6347 -94.0511 34° Northeast 389 448 21,200 585 Climbing Houston Center
07:59PM 31.7244 -93.9817 33° Northeast 392 451 22,000 780 Climbing Fort Worth Center
08:00PM 31.8128 -93.9078 35° Northeast 390 449 22,800 726 Climbing Fort Worth Center
08:01PM 31.8958 -93.8325 38° Northeast 382 440 23,500 677 Climbing Fort Worth Center
08:02PM 31.9806 -93.7519 39° Northeast 384 442 24,200 677 Climbing Fort Worth Center
08:03PM 32.0636 -93.6792 37° Northeast 378 435 24,900 726 Climbing Fort Worth Center
08:04PM 32.1619 -93.5881 38° Northeast 375 432 25,700 726 Climbing Fort Worth Center
08:05PM 32.2361 -93.5178 39° Northeast 375 432 26,400 677 Climbing Fort Worth Center
08:06PM 32.3186 -93.4422 38° Northeast 375 432 27,100 871 Climbing Fort Worth Center
08:07PM 32.4172 -93.3489 39° Northeast 378 435 28,200 919 Climbing Fort Worth Center
08:08PM 32.4972 -93.2747 38° Northeast 372 428 29,000 780 Climbing Fort Worth Center
08:09PM 32.5772 -93.2011 38° Northeast 370 426 29,800 829 Climbing Fort Worth Center
08:11PM 32.6575 -93.1256 38° Northeast 370 426 30,700 919 Climbing Fort Worth Center
08:12PM 32.7353 -93.0531 38° Northeast 360 414 31,700 871 Climbing Fort Worth Center
08:13PM 32.8142 -92.9789 38° Northeast 360 414 32,500 919 Climbing Fort Worth Center
08:14PM 32.9111 -92.8869 39° Northeast 363 418 33,600 919 Climbing Fort Worth Center
08:15PM 32.9903 -92.8158 37° Northeast 367 422 34,400 629 Climbing Fort Worth Center
08:16PM 33.0550 -92.7236 50° Northeast 368 423 34,900 288 Climbing Fort Worth Center
08:17PM 33.1147 -92.6178 56° Northeast 378 435 35,000 48 Climbing Fort Worth Center
08:18PM 33.1767 -92.5075 56° Northeast 393 452 35,000  Level Fort Worth Center
08:19PM 33.2558 -92.3703 55° Northeast 413 475 35,000  Level Fort Worth Center
08:20PM 33.3217 -92.2525 56° Northeast 422 486 35,000  Level Fort Worth Center
08:21PM 33.3864 -92.1342 57° Northeast 423 487 35,000  Level Fort Worth Center
08:22PM 33.4528 -92.0175 56° Northeast 423 487 35,000  Level Fort Worth Center
08:23PM 33.5172 -91.9003 57° Northeast 423 487 35,000  Level Fort Worth Center
08:24PM 33.5828 -91.7847 56° Northeast 423 487 35,000  Level Fort Worth Center
08:25PM 33.6589 -91.6428 57° Northeast 422 486 35,000  Level Fort Worth Center
08:26PM 33.7222 -91.5269 57° Northeast 420 483 35,000  Level Fort Worth Center
08:27PM 33.7858 -91.4111 57° Northeast 419 482 35,000  Level Fort Worth Center
08:28PM 33.8503 -91.2939 56° Northeast 419 482 35,000  Level Fort Worth Center
08:29PM 33.9144 -91.1772 56° Northeast 419 482 35,000  Level Fort Worth Center
08:30PM 33.9861 -91.0483 56° Northeast 419 482 35,000  Level Fort Worth Center
08:32PM 34.0742 -90.8875 57° Northeast 420 483 35,000  Level Memphis Center
08:33PM 34.1394 -90.7689 56° Northeast 420 483 35,000  Level Memphis Center
08:34PM 34.2019 -90.6511 57° Northeast 420 483 35,000  Level Memphis Center
08:35PM 34.2658 -90.5331 57° Northeast 420 483 35,000  Level Memphis Center
08:36PM 34.3419 -90.3903 57° Northeast 420 483 35,000  Level Memphis Center
08:37PM 34.4056 -90.2714 57° Northeast 421 484 35,000  Level Memphis Center
08:38PM 34.4686 -90.1531 57° Northeast 421 484 35,000  Level Memphis Center
08:39PM 34.5322 -90.0336 57° Northeast 421 484 35,000  Level Memphis Center
08:40PM 34.5936 -89.9147 58° Northeast 421 484 35,000  Level Memphis Center
08:41PM 34.6544 -89.7956 58° Northeast 421 484 35,000  Level Memphis Center
08:42PM 34.7297 -89.6519 57° Northeast 425 489 35,000  Level Memphis Center
08:43PM 34.7911 -89.5317 58° Northeast 427 491 35,000  Level Memphis Center
08:44PM 34.8531 -89.4186 56° Northeast 414 476 35,000  Level Memphis Center
08:45PM 34.9125 -89.3025 58° Northeast 408 470 35,000  Level Memphis Center
08:46PM 34.9733 -89.1869 57° Northeast 408 470 35,000 -146 Level Memphis Center
08:47PM 35.0456 -89.0461 58° Northeast 408 470 34,700 -585 Descending Memphis Center
08:48PM 35.1069 -88.9278 58° Northeast 409 471 33,800 -871 Descending Memphis Center
08:49PM 35.1675 -88.8089 58° Northeast 410 472 32,900 -927 Descending Memphis Center
08:50PM 35.2281 -88.6897 58° Northeast 412 474 31,900 -927 Descending Memphis Center
08:51PM 35.2883 -88.5703 58° Northeast 414 476 31,000 -780 Descending Memphis Center
08:52PM 35.3464 -88.4575 58° Northeast 414 476 30,300 -634 Descending Memphis Center
08:53PM 35.4142 -88.3219 58° Northeast 415 478 29,700 -537 Descending Memphis Center
08:54PM 35.4753 -88.2014 58° Northeast 415 478 29,200 -585 Descending Memphis Center
08:55PM 35.5375 -88.0778 58° Northeast 415 478 28,500 -1,366 Descending Memphis Center
08:56PM 35.6019 -87.9478 59° Northeast 416 479 26,400 -2,098 Descending Memphis Center
08:57PM 35.6603 -87.8311 58° Northeast 416 479 24,200 -2,439 Descending Memphis Center
08:58PM 35.7300 -87.6892 59° Northeast 416 479 21,400 -2,488 Descending Memphis Center
08:59PM 35.7889 -87.5714 58° Northeast 406 467 19,100 -2,146 Descending Memphis Center
09:00PM 35.8403 -87.4500 62° Northeast 399 459 17,000 -2,195 Descending Memphis Center
09:01PM 35.8825 -87.3283 67° East 389 448 14,600 -2,293 Descending Memphis Center
09:02PM 35.9269 -87.2100 65° Northeast 383 441 12,300 -1,805 Descending Memphis Center
09:03PM 35.9678 -87.1017 65° Northeast 358 412 10,900 -1,268 Descending Memphis Center
09:04PM 36.0056 -87.0106 63° Northeast 312 359 9,700 -1,317 Descending Memphis Center
09:05PM 36.0397 -86.9289 63° Northeast 279 321 8,200 -1,415 Descending Memphis Center
09:06PM 36.0708 -86.8519 63° Northeast 257 296 6,800 -1,317 Descending Memphis Center
09:07PM 36.1158 -86.7961 45° Northeast 240 276 5,500 -976 Descending Memphis Center
09:09PM 36.1889 -86.7672 18° North 237 273 4,800 -878 Descending Memphis Center
09:10PM 36.2475 -86.7439 18° North 226 260 3,700 -1,122 Descending Memphis Center
09:11PM 36.2681 -86.6939 63° Northeast 213 245 2,500 -878 Descending Memphis Center
09:12PM 36.2222 -86.6600 149° Southeast 199 229 1,900 -537 Descending Memphis Center
09:13PM 36.1792 -86.6619 182° South 163 188 1,400 -585 Descending Memphis Center
09:14PM 36.1408 -86.6778 198° South 150 173 700 -677 Descending Memphis Center
09:16PM 36.1245 -86.6782 160° South  Level Estimated